createdAt,value
2023-08-05T00:01:12.279Z,1.92
2023-08-05T00:06:16.307Z,2.38
2023-08-05T00:11:19.614Z,1.80
2023-08-05T00:16:21.379Z,2.58
2023-08-05T00:21:23.258Z,2.70
2023-08-05T00:26:25.056Z,1.70
2023-08-05T00:31:27.224Z,3.30
2023-08-05T00:36:29.046Z,3.03
2023-08-05T00:41:30.677Z,2.65
2023-08-05T00:46:35.309Z,2.20
2023-08-05T00:51:37.398Z,1.90
2023-08-05T00:56:39.491Z,2.50
2023-08-05T01:01:41.238Z,2.28
2023-08-05T01:06:45.685Z,2.97
2023-08-05T01:11:47.594Z,2.05
2023-08-05T01:16:50.467Z,2.53
2023-08-05T01:22:12.064Z,2.63
2023-08-05T01:27:13.947Z,2.55
2023-08-05T01:32:18.436Z,2.40
2023-08-05T01:37:22.076Z,2.50
2023-08-05T01:42:23.937Z,1.98
2023-08-05T01:47:26.060Z,2.30
2023-08-05T01:52:27.809Z,2.78
2023-08-05T01:57:29.534Z,2.58
2023-08-05T02:02:32.227Z,2.65
2023-08-05T02:07:34.033Z,2.92
2023-08-05T02:12:35.726Z,2.97
2023-08-05T02:17:37.439Z,4.28
2023-08-05T02:22:39.221Z,3.78
2023-08-05T02:27:40.945Z,2.85
2023-08-05T02:32:42.608Z,2.58
2023-08-05T02:37:46.628Z,2.25
2023-08-05T02:42:48.327Z,2.67
2023-08-05T02:47:50.030Z,2.22
2023-08-05T02:52:51.714Z,2.70
2023-08-05T02:57:53.384Z,2.53
2023-08-05T03:02:55.686Z,3.00
2023-08-05T03:07:57.480Z,2.47
2023-08-05T03:12:59.215Z,2.40
2023-08-05T03:18:01.453Z,2.65
2023-08-05T03:23:03.992Z,2.47
2023-08-05T03:28:08.230Z,2.70
2023-08-05T03:33:13.811Z,2.30
2023-08-05T03:38:16.598Z,2.45
2023-08-05T03:43:18.332Z,2.25
2023-08-05T03:48:20.087Z,2.75
2023-08-05T03:53:22.945Z,2.42
2023-08-05T03:58:26.787Z,2.70
2023-08-05T04:03:34.408Z,3.28
2023-08-05T04:08:37.374Z,3.03
2023-08-05T04:13:40.568Z,3.42
2023-08-05T04:18:44.821Z,3.58
2023-08-05T04:23:48.258Z,2.95
2023-08-05T04:28:49.985Z,2.95
2023-08-05T04:33:51.671Z,3.03
2023-08-05T04:38:53.320Z,3.13
2023-08-05T04:43:54.982Z,3.67
2023-08-05T04:48:56.684Z,3.10
2023-08-05T04:53:58.623Z,4.25
2023-08-05T04:59:00.275Z,3.88
2023-08-05T05:04:03.258Z,4.18
2023-08-05T05:09:05.001Z,4.63
2023-08-05T05:14:07.702Z,4.50
2023-08-05T05:19:10.086Z,4.88
2023-08-05T05:24:11.756Z,5.43
2023-08-05T05:29:13.389Z,5.70
2023-08-05T05:34:15.093Z,4.82
2023-08-05T05:39:16.827Z,6.28
2023-08-05T05:44:18.825Z,5.95
2023-08-05T05:49:21.847Z,5.82
2023-08-05T05:54:23.675Z,6.00
2023-08-05T05:59:26.302Z,5.90
2023-08-05T06:04:29.575Z,6.15
2023-08-05T06:09:33.680Z,6.13
2023-08-05T06:14:35.855Z,6.78
2023-08-05T06:19:37.484Z,7.38
2023-08-05T06:24:39.669Z,7.05
2023-08-05T06:29:41.308Z,8.23
2023-08-05T06:34:43.064Z,6.88
2023-08-05T06:39:45.220Z,7.15
2023-08-05T06:44:48.658Z,7.68
2023-08-05T06:49:50.771Z,7.88
2023-08-05T06:54:52.416Z,8.30
2023-08-05T06:59:54.165Z,8.48
2023-08-05T07:04:55.812Z,7.68
2023-08-05T07:10:03.272Z,7.65
2023-08-05T07:15:05.630Z,6.57
2023-08-05T07:20:08.019Z,6.45
2023-08-05T07:25:09.654Z,5.97
2023-08-05T07:30:11.683Z,6.70
2023-08-05T07:35:16.316Z,6.80
2023-08-05T07:40:17.921Z,5.70
2023-08-05T07:45:20.249Z,6.10
2023-08-05T07:50:25.099Z,5.03
2023-08-05T07:55:31.322Z,5.70
2023-08-05T08:00:34.866Z,5.35
2023-08-05T08:05:36.522Z,4.97
2023-08-05T08:10:38.154Z,4.53
2023-08-05T08:15:39.914Z,4.65
2023-08-05T08:20:41.630Z,3.22
2023-08-05T08:25:43.286Z,2.95
2023-08-05T08:30:58.446Z,3.95
2023-08-05T08:36:00.168Z,3.15
2023-08-05T08:41:05.225Z,4.10
2023-08-05T08:46:08.976Z,3.47
2023-08-05T08:51:11.242Z,4.15
2023-08-05T08:56:13.123Z,4.60
2023-08-05T09:01:19.299Z,5.30
2023-08-05T09:06:23.955Z,5.68
2023-08-05T09:11:25.570Z,5.30
2023-08-05T09:16:27.929Z,4.78
2023-08-05T09:21:29.728Z,6.57
2023-08-05T09:26:37.145Z,4.97
2023-08-05T09:31:38.958Z,5.63
2023-08-05T09:36:40.727Z,4.60
2023-08-05T09:41:51.369Z,6.38
2023-08-05T09:46:57.465Z,5.13
2023-08-05T09:51:59.747Z,4.90
2023-08-05T09:57:04.413Z,5.85
2023-08-05T10:02:11.303Z,5.25
2023-08-05T10:07:15.521Z,5.03
2023-08-05T10:12:43.217Z,4.00
2023-08-05T10:17:45.031Z,3.40
2023-08-05T10:23:15.006Z,3.28
2023-08-05T10:28:29.110Z,2.80
2023-08-05T10:33:30.896Z,2.90
2023-08-05T10:38:43.078Z,2.90
2023-08-05T10:43:44.839Z,3.92
2023-08-05T10:48:49.541Z,3.00
2023-08-05T10:53:57.338Z,3.10
2023-08-05T10:59:03.781Z,3.10
2023-08-05T11:04:29.786Z,2.58
2023-08-05T11:09:34.986Z,2.97
2023-08-05T11:14:38.298Z,2.80
2023-08-05T11:19:58.154Z,3.00
2023-08-05T11:30:18.403Z,2.95
2023-08-05T11:35:20.421Z,4.07
2023-08-05T11:40:22.186Z,4.00
2023-08-05T11:45:23.962Z,5.28
2023-08-05T11:50:36.062Z,5.10
2023-08-05T11:55:38.271Z,5.70
2023-08-05T12:00:53.020Z,6.03
2023-08-05T12:06:03.124Z,6.22
2023-08-05T12:11:04.808Z,6.63
2023-08-05T12:16:19.798Z,5.88
2023-08-05T12:21:22.463Z,6.45
2023-08-05T12:26:30.256Z,5.57
2023-08-05T12:31:33.156Z,6.63
2023-08-05T12:36:34.993Z,5.13
2023-08-05T12:41:36.965Z,5.70
2023-08-05T12:46:38.642Z,5.28
2023-08-05T12:51:40.358Z,6.00
2023-08-05T12:56:42.068Z,6.15
2023-08-05T13:01:43.989Z,6.10
2023-08-05T13:06:45.742Z,5.60
2023-08-05T13:11:47.380Z,5.07
2023-08-05T13:16:49.099Z,5.50
2023-08-05T13:21:50.841Z,4.97
2023-08-05T13:26:52.504Z,5.55
2023-08-05T13:31:54.376Z,4.80
2023-08-05T13:36:56.239Z,5.32
2023-08-05T13:41:59.954Z,4.20
2023-08-05T13:47:02.087Z,3.40
2023-08-05T13:52:05.030Z,2.92
2023-08-05T13:57:06.712Z,3.40
2023-08-05T14:02:08.472Z,2.95
2023-08-05T14:07:10.173Z,3.05
2023-08-05T14:12:11.908Z,3.03
2023-08-05T14:17:13.595Z,2.92
2023-08-05T14:22:16.556Z,2.10
2023-08-05T14:27:18.532Z,2.80
2023-08-05T14:32:20.404Z,3.00
2023-08-05T14:37:22.077Z,3.60
2023-08-05T14:42:23.769Z,3.17
2023-08-05T14:47:25.570Z,3.33
2023-08-05T14:52:27.270Z,2.70
2023-08-05T14:57:28.958Z,3.15
2023-08-05T15:02:30.764Z,3.08
2023-08-05T15:07:35.402Z,3.13
2023-08-05T15:12:37.642Z,2.33
2023-08-05T15:17:42.340Z,1.98
2023-08-05T15:22:44.413Z,2.50
2023-08-05T15:27:46.279Z,2.88
2023-08-05T15:32:49.500Z,2.15
2023-08-05T15:37:51.238Z,2.72
2023-08-05T15:42:53.047Z,3.03
2023-08-05T15:47:54.757Z,3.47
2023-08-05T15:52:56.561Z,3.30
2023-08-05T15:57:58.688Z,3.20
2023-08-05T16:03:00.343Z,3.45
2023-08-05T16:08:04.600Z,3.45
2023-08-05T16:13:06.320Z,3.20
2023-08-05T16:18:10.648Z,2.90
2023-08-05T16:23:12.731Z,2.72
2023-08-05T16:28:14.408Z,3.30
2023-08-05T16:33:16.070Z,3.55
2023-08-05T16:38:17.753Z,2.97
2023-08-05T16:43:19.488Z,3.17
2023-08-05T16:48:21.752Z,3.90
2023-08-05T16:53:23.478Z,5.03
2023-08-05T16:58:25.232Z,4.07
2023-08-05T17:03:27.006Z,3.20
2023-08-05T17:08:28.772Z,1.88
2023-08-05T17:13:30.461Z,2.75
2023-08-05T17:18:36.242Z,2.28
2023-08-05T17:23:37.995Z,2.13
2023-08-05T17:28:39.748Z,2.78
2023-08-05T17:33:41.498Z,2.15
2023-08-05T17:38:43.250Z,2.28
2023-08-05T17:43:45.006Z,2.78
2023-08-05T17:48:52.037Z,2.10
2023-08-05T17:53:54.152Z,2.15
2023-08-05T17:58:56.044Z,2.00
2023-08-05T18:03:57.786Z,2.38
2023-08-05T18:09:02.276Z,2.47
2023-08-05T18:14:04.006Z,2.22
2023-08-05T18:19:08.019Z,2.05
2023-08-05T18:24:09.765Z,2.65
2023-08-05T18:29:11.482Z,2.35
2023-08-05T18:34:13.977Z,2.08
2023-08-05T18:39:15.631Z,2.88
2023-08-05T18:44:17.322Z,2.10
2023-08-05T18:49:19.027Z,2.13
2023-08-05T18:54:22.137Z,2.03
2023-08-05T18:59:27.735Z,2.05
2023-08-05T19:04:33.470Z,2.40
2023-08-05T19:09:52.428Z,2.33
2023-08-05T19:14:54.583Z,2.70
2023-08-05T19:19:56.398Z,2.90
2023-08-05T19:24:58.088Z,2.08
2023-08-05T19:29:59.769Z,2.50
2023-08-05T19:35:04.697Z,2.90
2023-08-05T19:40:07.019Z,2.55
2023-08-05T19:45:08.861Z,2.65
2023-08-05T19:50:10.678Z,2.90
2023-08-05T19:55:12.500Z,2.80
2023-08-05T20:00:14.610Z,4.10
2023-08-05T20:05:16.429Z,2.95
2023-08-05T20:10:18.453Z,3.47
2023-08-05T20:15:20.151Z,3.65
2023-08-05T20:20:22.121Z,3.70
2023-08-05T20:25:23.795Z,3.75
2023-08-05T20:30:25.529Z,3.90
2023-08-05T20:35:27.221Z,4.22
2023-08-05T20:40:28.929Z,4.20
2023-08-05T20:45:30.604Z,3.47
2023-08-05T20:50:34.907Z,4.32
2023-08-05T20:55:36.644Z,3.42
2023-08-05T21:00:38.509Z,4.22
2023-08-05T21:05:40.224Z,3.90
2023-08-05T21:10:42.692Z,5.03
2023-08-05T21:15:44.652Z,4.68
2023-08-05T21:20:46.349Z,5.20
2023-08-05T21:25:48.161Z,4.43
2023-08-05T21:30:50.951Z,4.72
2023-08-05T21:35:55.599Z,4.30
2023-08-05T21:41:00.187Z,5.68
2023-08-05T21:46:04.522Z,4.78
2023-08-05T21:51:07.344Z,4.32
2023-08-05T21:56:09.342Z,4.82
2023-08-05T22:01:11.245Z,5.00
2023-08-05T22:06:13.604Z,5.22
2023-08-05T22:11:15.320Z,5.15
2023-08-05T22:16:17.017Z,5.18
2023-08-05T22:21:19.758Z,5.68
2023-08-05T22:26:21.565Z,5.50
2023-08-05T22:31:23.289Z,5.45
2023-08-05T22:36:25.000Z,4.50
2023-08-05T22:41:26.695Z,4.70
2023-08-05T22:46:28.357Z,5.30
2023-08-05T22:51:33.421Z,4.65
2023-08-05T22:56:35.445Z,4.63
2023-08-05T23:01:37.158Z,4.80
2023-08-05T23:06:38.824Z,4.95
2023-08-05T23:11:40.455Z,5.55
2023-08-05T23:16:42.788Z,5.05
2023-08-05T23:21:44.558Z,6.53
2023-08-05T23:26:46.291Z,4.97
2023-08-05T23:31:47.922Z,5.70
2023-08-05T23:36:49.614Z,6.28
2023-08-05T23:41:51.529Z,6.60
2023-08-05T23:46:53.417Z,6.50
2023-08-05T23:51:55.305Z,6.22
2023-08-05T23:56:57.253Z,6.28
